Time;durP1;ratioP1;P1;durP2;ratioP2;P2;SDS_P1;SDS_P2;PMS_P1;PMS_P2;Temp;Humidity;BMP_temperature;BMP_pressure;BME280_temperature;BME280_humidity;BME280_pressure;Samples;Min_cycle;Max_cycle;Signal;HPM_P1;HPM_P2
2022/03/04 00:00:04;;;;;;;81.88;35.45;;;;;;;;;;10339017;28;20042;-67
2022/03/04 00:05:27;;;;;;;83.00;36.70;;;;;;;;;;10329705;28;20113;-67
2022/03/04 00:10:29;;;;;;;79.90;34.05;;;;;;;;;;10328037;28;20379;-67
2022/03/04 00:15:34;;;;;;;72.35;34.28;;;;;;;;;;10329204;28;20085;-67
2022/03/04 00:20:37;;;;;;;71.60;32.90;;;;;;;;;;10368411;28;20360;-67
2022/03/04 00:25:39;;;;;;;63.45;30.58;;;;;;;;;;10354363;28;20141;-67
2022/03/04 00:30:43;;;;;;;66.68;31.60;;;;;;;;;;10326973;28;20038;-67
2022/03/04 00:35:46;;;;;;;65.65;29.38;;;;;;;;;;10353251;28;20066;-67
2022/03/04 00:40:48;;;;;;;60.97;27.98;;;;;;;;;;10354074;28;20046;-67
2022/03/04 00:45:53;;;;;;;57.78;27.35;;;;;;;;;;10294237;28;20095;-67
2022/03/04 00:50:55;;;;;;;50.20;25.73;;;;;;;;;;10351357;28;20050;-67
2022/03/04 00:55:57;;;;;;;53.30;25.02;;;;;;;;;;10353512;28;20034;-68
2022/03/04 01:01:01;;;;;;;48.80;22.85;;;;;;;;;;10286086;28;20051;-66
2022/03/04 01:06:05;;;;;;;50.47;23.60;;;;;;;;;;10348519;28;20046;-66
2022/03/04 01:11:07;;;;;;;48.97;23.70;;;;;;;;;;10301173;28;20040;-67
2022/03/04 01:16:11;;;;;;;59.72;26.15;;;;;;;;;;10345388;28;20073;-67
2022/03/04 01:21:15;;;;;;;48.37;23.37;;;;;;;;;;10353211;28;20340;-67
2022/03/04 01:26:17;;;;;;;42.58;20.05;;;;;;;;;;10335815;28;20050;-66
2022/03/04 01:31:21;;;;;;;51.10;24.55;;;;;;;;;;10327622;28;20043;-67
2022/03/04 01:36:24;;;;;;;53.85;24.08;;;;;;;;;;10334436;28;20055;-67
2022/03/04 01:41:26;;;;;;;44.40;23.67;;;;;;;;;;10296535;28;20055;-67
2022/03/04 01:46:32;;;;;;;49.38;21.85;;;;;;;;;;10312367;28;20057;-67
2022/03/04 01:51:34;;;;;;;40.25;21.30;;;;;;;;;;10333370;28;20055;-67
2022/03/04 01:56:36;;;;;;;49.30;22.23;;;;;;;;;;10274668;28;20043;-67
2022/03/04 02:01:40;;;;;;;50.88;22.38;;;;;;;;;;10312823;28;20109;-67
2022/03/04 02:06:43;;;;;;;52.97;23.65;;;;;;;;;;10332915;28;20049;-67
2022/03/04 02:11:45;;;;;;;48.55;23.38;;;;;;;;;;10329238;28;20066;-67
2022/03/04 02:16:51;;;;;;;47.92;21.63;;;;;;;;;;10311892;28;20102;-66
2022/03/04 02:21:56;;;;;;;43.90;21.67;;;;;;;;;;10353938;28;20046;-67
2022/03/04 02:27:00;;;;;;;37.75;18.75;;;;;;;;;;10326400;28;20106;-67
2022/03/04 02:32:04;;;;;;;32.30;15.73;;;;;;;;;;10280351;28;20046;-68
2022/03/04 02:37:08;;;;;;;28.15;13.52;;;;;;;;;;10286671;28;20372;-67
2022/03/04 02:42:11;;;;;;;17.02;9.38;;;;;;;;;;10312385;28;20054;-68
2022/03/04 02:47:14;;;;;;;14.38;7.53;;;;;;;;;;10336704;28;20101;-67
2022/03/04 02:52:18;;;;;;;13.02;7.25;;;;;;;;;;10331922;28;20061;-67
2022/03/04 02:57:21;;;;;;;14.25;8.20;;;;;;;;;;10349916;28;20326;-67
2022/03/04 03:02:23;;;;;;;16.52;10.10;;;;;;;;;;10300468;28;20051;-66
2022/03/04 03:07:27;;;;;;;10.40;7.07;;;;;;;;;;10306736;28;20058;-67
2022/03/04 03:12:29;;;;;;;13.70;7.68;;;;;;;;;;10330366;28;20061;-67
2022/03/04 03:17:31;;;;;;;17.70;9.48;;;;;;;;;;10329376;28;20043;-67
2022/03/04 03:22:35;;;;;;;18.95;9.98;;;;;;;;;;10329068;28;20049;-67
2022/03/04 03:27:38;;;;;;;14.65;8.98;;;;;;;;;;10354662;28;20100;-67
2022/03/04 03:32:42;;;;;;;16.27;9.45;;;;;;;;;;10336950;28;20047;-67
2022/03/04 03:37:46;;;;;;;20.45;11.13;;;;;;;;;;10353976;28;20058;-67
2022/03/04 03:42:49;;;;;;;16.20;10.02;;;;;;;;;;10311381;28;20051;-67
2022/03/04 03:47:53;;;;;;;23.23;12.48;;;;;;;;;;10278298;28;20103;-67
2022/03/04 03:52:57;;;;;;;25.48;12.10;;;;;;;;;;10316542;28;20055;-67
2022/03/04 03:58:00;;;;;;;16.80;9.88;;;;;;;;;;10327527;28;20050;-67
2022/03/04 04:03:02;;;;;;;15.55;9.38;;;;;;;;;;10351957;28;20388;-67
2022/03/04 04:08:06;;;;;;;14.80;8.95;;;;;;;;;;10276499;28;20357;-67
2022/03/04 04:13:08;;;;;;;18.10;9.25;;;;;;;;;;10302299;28;20050;-66
2022/03/04 04:18:11;;;;;;;21.48;9.15;;;;;;;;;;10315721;28;20225;-67
2022/03/04 04:23:15;;;;;;;15.77;8.73;;;;;;;;;;10314208;28;20054;-67
2022/03/04 04:28:17;;;;;;;20.73;9.98;;;;;;;;;;10328599;28;20043;-67
2022/03/04 04:33:20;;;;;;;17.20;8.55;;;;;;;;;;10355451;28;20047;-67
2022/03/04 04:38:24;;;;;;;22.75;9.95;;;;;;;;;;10323225;28;20062;-67
2022/03/04 04:43:26;;;;;;;22.15;11.07;;;;;;;;;;10313361;28;20043;-67
2022/03/04 04:48:29;;;;;;;21.17;10.02;;;;;;;;;;10289938;28;20341;-67
2022/03/04 04:53:34;;;;;;;19.45;10.10;;;;;;;;;;10320711;28;20059;-67
2022/03/04 04:58:36;;;;;;;24.60;9.30;;;;;;;;;;10330960;28;20073;-67
2022/03/04 05:03:38;;;;;;;15.63;8.63;;;;;;;;;;10345056;28;20046;-67
2022/03/04 05:08:42;;;;;;;18.58;8.90;;;;;;;;;;10353589;28;20058;-66
2022/03/04 05:13:44;;;;;;;15.43;9.07;;;;;;;;;;10353810;28;20092;-67
2022/03/04 05:18:47;;;;;;;15.65;8.57;;;;;;;;;;10338541;28;20085;-66
2022/03/04 05:24:00;;;;;;;17.70;9.18;;;;;;;;;;10346605;28;20113;-67
2022/03/04 05:29:04;;;;;;;17.25;8.93;;;;;;;;;;10326084;28;20057;-67
2022/03/04 05:34:07;;;;;;;17.63;8.70;;;;;;;;;;10346782;28;20074;-67
2022/03/04 05:39:11;;;;;;;17.17;8.95;;;;;;;;;;10340521;28;20046;-66
2022/03/04 05:44:14;;;;;;;25.58;12.30;;;;;;;;;;10287555;28;20074;-67
2022/03/04 05:49:16;;;;;;;25.65;11.73;;;;;;;;;;10272794;28;20241;-67
2022/03/04 05:54:20;;;;;;;19.10;10.05;;;;;;;;;;10297403;28;20368;-68
2022/03/04 05:59:22;;;;;;;15.90;9.27;;;;;;;;;;10351706;28;20396;-68
2022/03/04 06:04:25;;;;;;;25.10;12.82;;;;;;;;;;10317116;28;20046;-67
2022/03/04 06:09:28;;;;;;;23.05;10.98;;;;;;;;;;10288665;28;20055;-70
2022/03/04 06:14:31;;;;;;;18.58;9.88;;;;;;;;;;10293584;28;20050;-67
2022/03/04 06:19:33;;;;;;;16.88;10.57;;;;;;;;;;10308065;28;20039;-69
2022/03/04 06:24:37;;;;;;;19.83;10.40;;;;;;;;;;10285934;28;20054;-68
2022/03/04 06:29:40;;;;;;;20.48;10.82;;;;;;;;;;10297504;28;20106;-69
2022/03/04 06:34:42;;;;;;;21.52;11.90;;;;;;;;;;10285464;28;20089;-69
2022/03/04 06:39:46;;;;;;;24.42;11.07;;;;;;;;;;10311297;28;20042;-68
2022/03/04 06:44:49;;;;;;;17.95;9.10;;;;;;;;;;10313085;28;20054;-68
2022/03/04 06:49:51;;;;;;;20.63;9.07;;;;;;;;;;10295871;28;20054;-68
2022/03/04 06:54:55;;;;;;;19.38;9.38;;;;;;;;;;10311588;28;20047;-69
2022/03/04 06:59:57;;;;;;;16.08;10.05;;;;;;;;;;10271671;28;20258;-68
2022/03/04 07:04:59;;;;;;;15.82;9.25;;;;;;;;;;10274052;28;20326;-67
2022/03/04 07:10:04;;;;;;;22.92;9.63;;;;;;;;;;10294102;28;20054;-69
2022/03/04 07:15:08;;;;;;;22.67;9.43;;;;;;;;;;10287219;28;20055;-68
2022/03/04 07:20:11;;;;;;;16.42;9.32;;;;;;;;;;10317674;28;20045;-71
2022/03/04 07:25:16;;;;;;;21.13;10.27;;;;;;;;;;10338493;28;20348;-69
2022/03/04 07:30:21;;;;;;;29.27;14.30;;;;;;;;;;10301182;28;20098;-69
2022/03/04 07:35:24;;;;;;;23.20;10.52;;;;;;;;;;10315718;28;20372;-67
2022/03/04 07:40:28;;;;;;;21.25;11.88;;;;;;;;;;10305312;28;20050;-71
2022/03/04 07:45:30;;;;;;;23.55;12.10;;;;;;;;;;10307956;28;20046;-69
2022/03/04 07:50:33;;;;;;;22.95;10.65;;;;;;;;;;10314386;28;20264;-68
2022/03/04 07:55:36;;;;;;;23.50;11.95;;;;;;;;;;10353298;28;20050;-68
2022/03/04 08:00:39;;;;;;;24.38;11.95;;;;;;;;;;10354757;28;20050;-68
2022/03/04 08:05:41;;;;;;;18.95;10.38;;;;;;;;;;10326094;28;20054;-67
2022/03/04 08:10:45;;;;;;;24.42;11.60;;;;;;;;;;10355435;28;20042;-68
2022/03/04 08:15:48;;;;;;;28.40;13.85;;;;;;;;;;10355367;28;20070;-68
2022/03/04 08:20:50;;;;;;;20.23;11.30;;;;;;;;;;10317939;28;20046;-67
2022/03/04 08:25:55;;;;;;;24.63;12.80;;;;;;;;;;10352078;28;20348;-68
2022/03/04 08:30:58;;;;;;;25.00;11.93;;;;;;;;;;10351537;28;20047;-67
2022/03/04 08:36:00;;;;;;;21.10;12.30;;;;;;;;;;10315172;28;20066;-68
2022/03/04 08:41:04;;;;;;;29.60;15.07;;;;;;;;;;10313172;28;20350;-68
2022/03/04 08:46:07;;;;;;;29.02;12.90;;;;;;;;;;10311983;28;20054;-67
2022/03/04 08:51:10;;;;;;;31.55;16.95;;;;;;;;;;10312242;28;20057;-67
2022/03/04 08:56:14;;;;;;;27.20;11.98;;;;;;;;;;10313072;28;20061;-68
2022/03/04 09:01:16;;;;;;;26.83;14.25;;;;;;;;;;10335116;28;20043;-67
2022/03/04 09:06:19;;;;;;;22.83;12.43;;;;;;;;;;10320774;28;20062;-68
2022/03/04 09:11:23;;;;;;;24.92;12.13;;;;;;;;;;10343499;28;20334;-68
2022/03/04 09:16:25;;;;;;;26.52;13.60;;;;;;;;;;10319361;28;20046;-67
2022/03/04 09:21:28;;;;;;;25.75;12.10;;;;;;;;;;10353644;28;20101;-67
2022/03/04 09:26:32;;;;;;;28.15;12.13;;;;;;;;;;10352080;28;20297;-67
2022/03/04 09:31:34;;;;;;;24.38;13.02;;;;;;;;;;10320127;28;20055;-68
2022/03/04 09:36:37;;;;;;;26.83;13.35;;;;;;;;;;10289017;28;20090;-67
2022/03/04 09:41:45;;;;;;;32.25;13.55;;;;;;;;;;10290602;28;20118;-66
2022/03/04 09:46:48;;;;;;;28.95;14.40;;;;;;;;;;10323122;28;20054;-67
2022/03/04 09:51:50;;;;;;;29.92;14.38;;;;;;;;;;10319426;28;20141;-66
2022/03/04 09:56:55;;;;;;;23.70;12.75;;;;;;;;;;10336787;28;20042;-66
2022/03/04 10:01:58;;;;;;;20.60;11.07;;;;;;;;;;10339804;28;20049;-66
2022/03/04 10:07:10;;;;;;;21.02;12.05;;;;;;;;;;10351383;28;20058;-66
2022/03/04 10:12:16;;;;;;;23.00;12.13;;;;;;;;;;10363372;28;20041;-67
2022/03/04 10:17:19;;;;;;;20.02;10.77;;;;;;;;;;10310058;28;20056;-67
2022/03/04 10:22:22;;;;;;;29.25;13.23;;;;;;;;;;10313605;28;20210;-69
2022/03/04 10:27:32;;;;;;;18.27;11.55;;;;;;;;;;10303237;28;20043;-73
2022/03/04 10:32:35;;;;;;;18.13;10.90;;;;;;;;;;10313349;28;20038;-72
2022/03/04 10:37:48;;;;;;;15.75;10.15;;;;;;;;;;10296859;28;20057;-70
2022/03/04 10:42:54;;;;;;;14.27;7.82;;;;;;;;;;10330450;28;20051;-68
2022/03/04 10:47:59;;;;;;;14.32;6.97;;;;;;;;;;10287270;28;20047;-68
2022/03/04 10:53:03;;;;;;;14.00;7.73;;;;;;;;;;10296971;28;20046;-69
2022/03/04 10:58:15;;;;;;;12.30;6.80;;;;;;;;;;10350180;28;20051;-67
2022/03/04 11:03:19;;;;;;;10.48;6.93;;;;;;;;;;10335799;28;20047;-65
2022/03/04 11:08:22;;;;;;;10.25;6.50;;;;;;;;;;10325804;28;20062;-66
2022/03/04 11:13:29;;;;;;;11.75;5.95;;;;;;;;;;10297887;28;20348;-67
2022/03/04 11:18:34;;;;;;;5.85;4.88;;;;;;;;;;10317834;28;20230;-67
2022/03/04 11:23:38;;;;;;;9.70;5.95;;;;;;;;;;10302905;28;20050;-67
2022/03/04 11:28:44;;;;;;;9.67;5.17;;;;;;;;;;10310002;28;20069;-66
2022/03/04 11:33:51;;;;;;;7.85;4.82;;;;;;;;;;10327912;28;20094;-67
2022/03/04 11:38:59;;;;;;;7.00;4.70;;;;;;;;;;10329417;28;20061;-67
2022/03/04 11:44:12;;;;;;;10.70;5.25;;;;;;;;;;10296380;28;20047;-67
2022/03/04 11:49:27;;;;;;;6.60;4.93;;;;;;;;;;10328620;28;20089;-68
2022/03/04 11:54:29;;;;;;;8.97;5.30;;;;;;;;;;10317662;28;20109;-68
2022/03/04 11:59:33;;;;;;;8.77;5.15;;;;;;;;;;10311803;28;20093;-66
2022/03/04 12:04:36;;;;;;;8.20;4.47;;;;;;;;;;10307195;28;20054;-66
2022/03/04 12:09:47;;;;;;;4.10;3.63;;;;;;;;;;10295994;28;20231;-67
2022/03/04 12:14:55;;;;;;;5.25;3.67;;;;;;;;;;10303420;28;20230;-67
2022/03/04 12:19:59;;;;;;;5.22;3.80;;;;;;;;;;10316058;28;20043;-67
2022/03/04 12:25:02;;;;;;;8.30;5.60;;;;;;;;;;10298704;28;20082;-67
2022/03/04 12:30:20;;;;;;;6.82;5.72;;;;;;;;;;10315029;28;20051;-67
2022/03/04 12:35:23;;;;;;;5.93;4.93;;;;;;;;;;10320444;28;20063;-67
2022/03/04 12:40:26;;;;;;;7.10;4.65;;;;;;;;;;10294419;28;20064;-65
2022/03/04 12:45:30;;;;;;;7.15;4.10;;;;;;;;;;10312774;28;20042;-67
2022/03/04 12:50:33;;;;;;;8.03;4.57;;;;;;;;;;10312757;28;20050;-67
2022/03/04 12:55:37;;;;;;;6.38;4.82;;;;;;;;;;10319254;28;20341;-67
2022/03/04 13:00:40;;;;;;;6.28;4.47;;;;;;;;;;10310620;28;20353;-67
2022/03/04 13:05:47;;;;;;;7.75;4.63;;;;;;;;;;10298184;28;20267;-66
2022/03/04 13:10:49;;;;;;;5.85;4.60;;;;;;;;;;10279609;28;20043;-67
2022/03/04 13:15:54;;;;;;;8.18;4.82;;;;;;;;;;10302537;28;20054;-67
2022/03/04 13:21:03;;;;;;;7.60;5.10;;;;;;;;;;10314951;28;20202;-67
2022/03/04 13:26:07;;;;;;;9.23;6.15;;;;;;;;;;10312138;28;20043;-67
2022/03/04 13:31:21;;;;;;;6.25;5.00;;;;;;;;;;10312560;28;20054;-66
2022/03/04 13:36:56;;;;;;;11.52;6.05;;;;;;;;;;10308769;28;20074;-67
2022/03/04 13:42:15;;;;;;;11.13;7.35;;;;;;;;;;10208618;29;20068;-66
2022/03/04 13:47:33;;;;;;;11.10;6.30;;;;;;;;;;10193005;29;20111;-65
2022/03/04 13:52:50;;;;;;;22.02;9.65;;;;;;;;;;10239997;29;20047;-66
2022/03/04 13:57:58;;;;;;;8.93;5.95;;;;;;;;;;10213898;29;20115;-65
2022/03/04 14:03:06;;;;;;;9.60;7.43;;;;;;;;;;10191922;29;20244;-66
2022/03/04 14:08:11;;;;;;;11.95;8.60;;;;;;;;;;10213523;29;20315;-67
2022/03/04 14:13:15;;;;;;;11.68;7.45;;;;;;;;;;10243282;28;20054;-66
2022/03/04 14:18:21;;;;;;;12.07;6.93;;;;;;;;;;10300512;28;20062;-65
2022/03/04 14:23:24;;;;;;;11.80;7.18;;;;;;;;;;10308054;28;20089;-67
2022/03/04 14:28:27;;;;;;;11.07;6.00;;;;;;;;;;10283399;28;20058;-67
2022/03/04 14:33:30;;;;;;;11.48;6.57;;;;;;;;;;10299944;28;20239;-66
2022/03/04 14:38:34;;;;;;;8.05;5.93;;;;;;;;;;10313338;28;20242;-68
2022/03/04 14:43:37;;;;;;;8.10;5.75;;;;;;;;;;10309547;28;20046;-66
2022/03/04 14:48:40;;;;;;;11.23;7.18;;;;;;;;;;10278670;28;20067;-66
2022/03/04 14:53:43;;;;;;;9.82;6.50;;;;;;;;;;10270302;28;20058;-67
2022/03/04 14:58:45;;;;;;;10.65;6.80;;;;;;;;;;10270062;29;20063;-67
2022/03/04 15:03:49;;;;;;;11.02;8.18;;;;;;;;;;10278937;28;20334;-66
2022/03/04 15:08:51;;;;;;;19.58;11.73;;;;;;;;;;10283205;28;20046;-66
2022/03/04 15:13:53;;;;;;;19.20;11.75;;;;;;;;;;10313345;28;20046;-66
2022/03/04 15:18:58;;;;;;;21.52;12.07;;;;;;;;;;10318645;28;20090;-67
2022/03/04 15:24:00;;;;;;;17.52;11.13;;;;;;;;;;10317487;28;20333;-68
2022/03/04 15:29:02;;;;;;;13.73;9.10;;;;;;;;;;10317317;28;20039;-67
2022/03/04 15:34:08;;;;;;;18.05;11.93;;;;;;;;;;10301132;28;20128;-66
2022/03/04 15:39:14;;;;;;;16.05;9.80;;;;;;;;;;10307499;28;20050;-66
2022/03/04 15:44:18;;;;;;;16.38;10.52;;;;;;;;;;10313312;28;20059;-67
2022/03/04 15:49:24;;;;;;;17.30;10.82;;;;;;;;;;10317177;28;20237;-66
2022/03/04 15:54:27;;;;;;;23.00;14.07;;;;;;;;;;10317234;28;20054;-67
2022/03/04 15:59:29;;;;;;;19.35;12.80;;;;;;;;;;10316866;28;20047;-67
2022/03/04 16:04:33;;;;;;;16.52;12.75;;;;;;;;;;10316817;28;20042;-68
2022/03/04 16:09:35;;;;;;;19.27;11.60;;;;;;;;;;10316132;28;20046;-65
2022/03/04 16:14:38;;;;;;;19.77;12.20;;;;;;;;;;10315245;28;20242;-68
2022/03/04 16:19:43;;;;;;;20.90;12.23;;;;;;;;;;10316291;28;20107;-67
2022/03/04 16:24:46;;;;;;;22.55;11.10;;;;;;;;;;10316069;28;20051;-67
2022/03/04 16:29:48;;;;;;;25.40;13.15;;;;;;;;;;10315929;28;20054;-67
2022/03/04 16:34:52;;;;;;;16.77;11.40;;;;;;;;;;10310822;28;20074;-67
2022/03/04 16:39:55;;;;;;;16.90;12.27;;;;;;;;;;10299570;28;20058;-67
2022/03/04 16:44:57;;;;;;;19.90;12.07;;;;;;;;;;10274891;29;20051;-66
2022/03/04 16:50:01;;;;;;;31.27;15.07;;;;;;;;;;10274720;29;20297;-67
2022/03/04 16:55:05;;;;;;;17.63;10.52;;;;;;;;;;10293874;28;20047;-67
2022/03/04 17:00:10;;;;;;;11.80;8.38;;;;;;;;;;10314339;28;20046;-67
2022/03/04 17:05:16;;;;;;;13.52;9.02;;;;;;;;;;10312830;28;20094;-68
2022/03/04 17:10:18;;;;;;;16.02;9.35;;;;;;;;;;10300557;28;20046;-67
2022/03/04 17:15:21;;;;;;;10.93;7.18;;;;;;;;;;10303877;28;20226;-67
2022/03/04 17:20:25;;;;;;;13.75;8.88;;;;;;;;;;10309374;28;20085;-67
2022/03/04 17:25:28;;;;;;;18.00;8.70;;;;;;;;;;10313259;28;20058;-68
2022/03/04 17:30:31;;;;;;;12.82;8.65;;;;;;;;;;10313327;28;20234;-67
2022/03/04 17:35:35;;;;;;;15.20;7.82;;;;;;;;;;10304802;28;20301;-66
2022/03/04 17:40:38;;;;;;;16.42;8.40;;;;;;;;;;10309546;28;20330;-67
2022/03/04 17:45:40;;;;;;;13.23;10.07;;;;;;;;;;10313209;28;20057;-67
2022/03/04 17:50:44;;;;;;;17.38;9.57;;;;;;;;;;10312863;28;20042;-66
2022/03/04 17:55:46;;;;;;;20.38;11.32;;;;;;;;;;10302613;28;20321;-69
2022/03/04 18:00:48;;;;;;;17.25;9.88;;;;;;;;;;10312406;28;20050;-68
2022/03/04 18:05:52;;;;;;;16.55;10.88;;;;;;;;;;10312106;28;20046;-67
2022/03/04 18:10:55;;;;;;;17.98;10.57;;;;;;;;;;10311897;28;20066;-67
2022/03/04 18:15:57;;;;;;;13.93;8.25;;;;;;;;;;10285663;28;20063;-68
2022/03/04 18:21:01;;;;;;;16.42;8.55;;;;;;;;;;10272468;28;20042;-67
2022/03/04 18:26:04;;;;;;;15.35;10.05;;;;;;;;;;10277841;28;20047;-68
2022/03/04 18:31:07;;;;;;;13.30;8.80;;;;;;;;;;10274655;28;20073;-66
2022/03/04 18:36:11;;;;;;;13.85;8.27;;;;;;;;;;10300906;28;20317;-67
2022/03/04 18:41:14;;;;;;;18.58;9.82;;;;;;;;;;10315265;28;20047;-67
2022/03/04 18:46:16;;;;;;;14.90;8.82;;;;;;;;;;10311222;28;20051;-68
2022/03/04 18:51:23;;;;;;;12.60;9.38;;;;;;;;;;10310871;28;20054;-67
2022/03/04 18:56:25;;;;;;;15.55;9.43;;;;;;;;;;10309610;28;20055;-69
2022/03/04 19:01:45;;;;;;;18.02;10.75;;;;;;;;;;10310718;28;20333;-67
2022/03/04 19:06:50;;;;;;;18.85;11.25;;;;;;;;;;10310780;28;20054;-66
2022/03/04 19:11:52;;;;;;;21.20;10.83;;;;;;;;;;10308588;28;20276;-68
2022/03/04 19:16:55;;;;;;;18.85;10.63;;;;;;;;;;10311062;28;20054;-67
2022/03/04 19:21:59;;;;;;;14.95;9.25;;;;;;;;;;10309147;28;20038;-67
2022/03/04 19:27:02;;;;;;;13.27;7.55;;;;;;;;;;10306395;28;20361;-67
2022/03/04 19:32:05;;;;;;;10.18;6.82;;;;;;;;;;10309923;28;20047;-67
2022/03/04 19:37:09;;;;;;;9.90;6.03;;;;;;;;;;10308796;28;20074;-67
2022/03/04 19:42:12;;;;;;;12.60;6.57;;;;;;;;;;10273697;28;20058;-68
2022/03/04 19:47:16;;;;;;;16.95;7.22;;;;;;;;;;10270017;29;20243;-68
2022/03/04 19:52:20;;;;;;;16.20;7.70;;;;;;;;;;10284492;28;20051;-67
2022/03/04 19:57:22;;;;;;;15.75;8.85;;;;;;;;;;10317675;28;20074;-67
2022/03/04 20:02:24;;;;;;;15.77;8.85;;;;;;;;;;10317049;28;20220;-66
2022/03/04 20:07:28;;;;;;;14.30;8.65;;;;;;;;;;10298688;28;20309;-68
2022/03/04 20:12:31;;;;;;;12.95;8.55;;;;;;;;;;10316210;28;20047;-68
2022/03/04 20:17:33;;;;;;;27.02;12.07;;;;;;;;;;10310573;28;20043;-67
2022/03/04 20:22:37;;;;;;;16.63;7.07;;;;;;;;;;10281764;28;20047;-67
2022/03/04 20:27:41;;;;;;;19.52;9.20;;;;;;;;;;10312635;28;20050;-66
2022/03/04 20:32:43;;;;;;;20.38;9.13;;;;;;;;;;10329361;28;20281;-68
2022/03/04 20:37:47;;;;;;;20.55;9.65;;;;;;;;;;10311833;28;20058;-66
2022/03/04 20:42:50;;;;;;;22.95;9.43;;;;;;;;;;10316345;28;20268;-67
2022/03/04 20:47:55;;;;;;;;;;;;;;;;;;10306607;28;20059;-67
2022/03/04 20:52:59;;;;;;;19.20;8.50;;;;;;;;;;10298651;28;19925;-67
2022/03/04 20:58:01;;;;;;;25.85;11.90;;;;;;;;;;10316383;28;20042;-66
2022/03/04 21:03:03;;;;;;;15.68;7.93;;;;;;;;;;10327359;28;20051;-66
2022/03/04 21:08:07;;;;;;;16.08;8.40;;;;;;;;;;10301578;28;20046;-67
2022/03/04 21:13:09;;;;;;;20.38;8.70;;;;;;;;;;10314544;28;20043;-67
2022/03/04 21:18:12;;;;;;;17.40;8.90;;;;;;;;;;10312347;28;20251;-67
2022/03/04 21:23:15;;;;;;;22.02;10.05;;;;;;;;;;10279559;28;20035;-66
2022/03/04 21:28:18;;;;;;;21.85;9.50;;;;;;;;;;10302360;28;20049;-67
2022/03/04 21:33:20;;;;;;;26.30;11.20;;;;;;;;;;10354351;28;20053;-67
2022/03/04 21:38:25;;;;;;;25.33;11.13;;;;;;;;;;10317465;28;20086;-66
2022/03/04 21:43:28;;;;;;;27.15;10.90;;;;;;;;;;10313410;28;20050;-67
2022/03/04 21:48:30;;;;;;;24.02;11.07;;;;;;;;;;10311464;28;20054;-66
2022/03/04 21:53:34;;;;;;;27.35;11.57;;;;;;;;;;10315755;28;20054;-66
2022/03/04 21:58:36;;;;;;;28.33;12.88;;;;;;;;;;10316082;28;20369;-66
2022/03/04 22:03:38;;;;;;;29.10;14.38;;;;;;;;;;10300747;28;20262;-67
2022/03/04 22:08:42;;;;;;;27.70;13.52;;;;;;;;;;10320239;28;20146;-66
2022/03/04 22:13:45;;;;;;;29.35;11.15;;;;;;;;;;10303307;28;20278;-65
2022/03/04 22:18:47;;;;;;;23.10;10.23;;;;;;;;;;10332606;28;20049;-67
2022/03/04 22:23:51;;;;;;;21.98;11.45;;;;;;;;;;10299288;28;20054;-67
2022/03/04 22:28:53;;;;;;;29.08;10.90;;;;;;;;;;10316791;28;20227;-66
2022/03/04 22:33:56;;;;;;;17.83;9.20;;;;;;;;;;10341744;28;20054;-67
2022/03/04 22:39:00;;;;;;;18.13;8.65;;;;;;;;;;10314470;28;20077;-67
2022/03/04 22:44:03;;;;;;;14.98;7.45;;;;;;;;;;10311747;28;20031;-66
2022/03/04 22:49:05;;;;;;;23.38;9.15;;;;;;;;;;10310463;28;20054;-67
2022/03/04 22:54:10;;;;;;;21.27;9.65;;;;;;;;;;10309241;28;20049;-66
2022/03/04 22:59:13;;;;;;;20.10;9.80;;;;;;;;;;10295658;28;20050;-67
2022/03/04 23:09:36;;;;;;;23.83;10.15;;;;;;;;;;10344711;28;20054;-66
2022/03/04 23:14:39;;;;;;;23.42;10.10;;;;;;;;;;10345306;28;20337;-66
2022/03/04 23:19:41;;;;;;;20.95;10.48;;;;;;;;;;10331981;28;20058;-65
2022/03/04 23:24:46;;;;;;;19.58;10.23;;;;;;;;;;10312400;28;20050;-66
2022/03/04 23:29:49;;;;;;;29.25;13.15;;;;;;;;;;10318233;28;20039;-67
2022/03/04 23:34:51;;;;;;;30.90;12.68;;;;;;;;;;10295943;28;20122;-66
2022/03/04 23:39:56;;;;;;;27.00;12.32;;;;;;;;;;10315182;28;20053;-65
2022/03/04 23:44:58;;;;;;;27.48;13.88;;;;;;;;;;10357192;28;20058;-66
2022/03/04 23:50:00;;;;;;;26.75;13.70;;;;;;;;;;10326541;28;20278;-66
2022/03/04 23:55:05;;;;;;;32.90;15.20;;;;;;;;;;10305213;28;20050;-69
